createdAt,value
2019-01-14T00:00:03.499Z,967.64
2019-01-14T00:01:03.676Z,967.69
2019-01-14T00:02:03.857Z,967.67
2019-01-14T00:03:04.036Z,967.67
2019-01-14T00:04:04.222Z,967.63
2019-01-14T00:05:04.405Z,967.64
2019-01-14T00:06:10.149Z,967.71
2019-01-14T00:07:04.774Z,967.66
2019-01-14T00:08:04.953Z,967.64
2019-01-14T00:09:05.147Z,967.64
2019-01-14T00:10:05.329Z,967.63
2019-01-14T00:11:05.511Z,967.71
2019-01-14T00:12:05.693Z,967.72
2019-01-14T00:13:05.869Z,967.77
2019-01-14T00:14:06.050Z,967.71
2019-01-14T00:15:06.229Z,967.68
2019-01-14T00:16:06.413Z,967.72
2019-01-14T00:17:06.591Z,967.76
2019-01-14T00:18:06.779Z,967.73
2019-01-14T00:19:06.962Z,967.84
2019-01-14T00:20:07.141Z,967.75
2019-01-14T00:21:07.328Z,967.82
2019-01-14T00:22:07.510Z,967.64
2019-01-14T00:23:07.693Z,967.67
2019-01-14T00:24:07.872Z,967.73
2019-01-14T00:25:08.050Z,967.72
2019-01-14T00:26:08.231Z,967.87
2019-01-14T00:27:08.409Z,967.71
2019-01-14T00:28:08.591Z,967.80
2019-01-14T00:29:08.775Z,967.85
2019-01-14T00:30:08.979Z,967.79
2019-01-14T00:31:09.162Z,967.88
2019-01-14T00:32:09.341Z,967.78
2019-01-14T00:33:09.520Z,967.91
2019-01-14T00:34:09.709Z,967.98
2019-01-14T00:35:09.891Z,967.89
2019-01-14T00:36:17.255Z,967.94
2019-01-14T00:37:10.255Z,967.94
2019-01-14T00:38:10.435Z,967.95
2019-01-14T00:39:10.620Z,968.01
2019-01-14T00:40:10.795Z,967.91
2019-01-14T00:41:10.973Z,967.90
2019-01-14T00:42:11.157Z,967.91
2019-01-14T00:43:11.344Z,967.99
2019-01-14T00:44:11.525Z,967.96
2019-01-14T00:45:11.705Z,968.03
2019-01-14T00:46:11.887Z,968.09
2019-01-14T00:47:12.055Z,968.23
2019-01-14T00:48:12.243Z,968.17
2019-01-14T00:49:12.426Z,968.19
2019-01-14T00:50:12.610Z,968.22
2019-01-14T00:51:12.796Z,968.26
2019-01-14T00:52:12.959Z,968.20
2019-01-14T00:53:13.148Z,968.20
2019-01-14T00:54:13.326Z,968.20
2019-01-14T00:55:13.521Z,968.22
2019-01-14T00:56:13.685Z,968.20
2019-01-14T00:57:13.861Z,967.98
2019-01-14T00:58:14.040Z,968.15
2019-01-14T00:59:14.220Z,968.16
2019-01-14T01:00:14.407Z,968.13
2019-01-14T01:01:14.587Z,968.27
2019-01-14T01:02:14.768Z,967.97
2019-01-14T01:03:14.938Z,968.26
2019-01-14T01:04:15.134Z,968.06
2019-01-14T01:05:15.321Z,968.12
2019-01-14T01:06:15.522Z,968.12
2019-01-14T01:07:15.705Z,968.13
2019-01-14T01:08:15.886Z,968.24
2019-01-14T01:09:16.071Z,968.24
2019-01-14T01:10:16.293Z,968.28
2019-01-14T01:11:16.545Z,968.27
2019-01-14T01:12:16.672Z,968.24
2019-01-14T01:13:16.872Z,968.27
2019-01-14T01:14:17.045Z,968.41
2019-01-14T01:15:17.223Z,968.31
2019-01-14T01:16:17.408Z,968.33
2019-01-14T01:17:17.590Z,968.34
2019-01-14T01:18:17.768Z,968.44
2019-01-14T01:19:17.963Z,968.46
2019-01-14T01:20:18.150Z,968.41
2019-01-14T01:21:18.329Z,968.61
2019-01-14T01:22:18.510Z,968.60
2019-01-14T01:23:18.696Z,968.74
2019-01-14T01:24:18.881Z,968.63
2019-01-14T01:25:19.062Z,968.50
2019-01-14T01:26:19.247Z,968.64
2019-01-14T01:27:19.442Z,968.62
2019-01-14T01:28:19.622Z,968.75
2019-01-14T01:29:19.810Z,968.64
2019-01-14T01:30:19.985Z,968.76
2019-01-14T01:31:20.161Z,968.70
2019-01-14T01:32:20.366Z,968.63
2019-01-14T01:33:20.559Z,968.75
2019-01-14T01:34:20.728Z,968.75
2019-01-14T01:35:20.911Z,968.69
2019-01-14T01:36:21.085Z,968.85
2019-01-14T01:37:21.271Z,968.90
2019-01-14T01:38:21.454Z,968.95
2019-01-14T01:39:21.636Z,968.99
2019-01-14T01:40:21.826Z,969.01
2019-01-14T01:41:22.018Z,968.92
2019-01-14T01:42:22.199Z,969.03
2019-01-14T01:43:22.386Z,969.09
2019-01-14T01:44:22.564Z,969.05
2019-01-14T01:45:22.745Z,968.97
2019-01-14T01:46:22.931Z,969.06
2019-01-14T01:47:23.120Z,969.14
2019-01-14T01:48:23.303Z,969.11
2019-01-14T01:49:23.486Z,969.08
2019-01-14T01:50:23.676Z,969.13
2019-01-14T01:51:23.854Z,969.05
2019-01-14T01:52:24.032Z,969.11
2019-01-14T01:53:24.206Z,969.14
2019-01-14T01:54:24.385Z,969.17
2019-01-14T01:55:24.563Z,969.26
2019-01-14T01:56:24.747Z,969.18
2019-01-14T01:57:24.927Z,969.24
2019-01-14T01:58:25.110Z,969.26
2019-01-14T01:59:25.302Z,969.41
2019-01-14T02:00:25.495Z,969.37
2019-01-14T02:01:25.673Z,969.42
2019-01-14T02:02:25.857Z,969.44
2019-01-14T02:03:26.050Z,969.46
2019-01-14T02:04:26.235Z,969.42
2019-01-14T02:05:26.413Z,969.49
2019-01-14T02:06:26.595Z,969.51
2019-01-14T02:07:26.778Z,969.45
2019-01-14T02:08:26.964Z,969.65
2019-01-14T02:09:27.137Z,969.64
2019-01-14T02:10:27.320Z,969.61
2019-01-14T02:11:27.502Z,969.44
2019-01-14T02:12:27.679Z,969.54
2019-01-14T02:13:27.878Z,969.61
2019-01-14T02:14:28.052Z,969.61
2019-01-14T02:15:28.235Z,969.59
2019-01-14T02:16:28.413Z,969.71
2019-01-14T02:17:28.595Z,969.62
2019-01-14T02:18:28.781Z,969.61
2019-01-14T02:19:28.962Z,969.57
2019-01-14T02:20:29.140Z,969.70
2019-01-14T02:21:29.326Z,969.68
2019-01-14T02:22:29.510Z,969.71
2019-01-14T02:23:29.701Z,969.73
2019-01-14T02:24:29.880Z,969.77
2019-01-14T02:25:30.054Z,969.82
2019-01-14T02:26:30.236Z,970.04
2019-01-14T02:27:30.416Z,969.98
2019-01-14T02:28:30.602Z,970.13
2019-01-14T02:29:30.785Z,970.09
2019-01-14T02:30:30.963Z,970.05
2019-01-14T02:31:31.145Z,970.04
2019-01-14T02:32:31.332Z,970.27
2019-01-14T02:33:31.515Z,970.11
2019-01-14T02:34:31.696Z,970.30
2019-01-14T02:35:31.881Z,970.22
2019-01-14T02:36:32.062Z,970.29
2019-01-14T02:37:32.241Z,970.15
2019-01-14T02:38:32.425Z,969.99
2019-01-14T02:39:32.608Z,970.14
2019-01-14T02:40:32.801Z,970.22
2019-01-14T02:41:32.967Z,970.21
2019-01-14T02:42:33.148Z,970.26
2019-01-14T02:43:33.328Z,970.38
2019-01-14T02:44:33.507Z,970.49
2019-01-14T02:45:33.688Z,970.54
2019-01-14T02:46:33.868Z,970.65
2019-01-14T02:47:34.045Z,970.52
2019-01-14T02:48:34.233Z,970.45
2019-01-14T02:49:34.413Z,970.50
2019-01-14T02:50:34.595Z,970.35
2019-01-14T02:51:34.777Z,970.39
2019-01-14T02:52:39.458Z,970.50
2019-01-14T02:53:35.145Z,970.58
2019-01-14T02:54:35.326Z,970.57
2019-01-14T02:55:35.508Z,970.57
2019-01-14T02:56:35.694Z,970.51
2019-01-14T02:57:35.874Z,970.56
2019-01-14T02:58:36.054Z,970.62
2019-01-14T02:59:36.231Z,970.61
2019-01-14T03:00:36.408Z,970.70
2019-01-14T03:01:36.599Z,970.78
2019-01-14T03:02:36.781Z,970.76
2019-01-14T03:03:36.963Z,970.66
2019-01-14T03:04:37.147Z,970.70
2019-01-14T03:05:37.327Z,970.74
2019-01-14T03:06:37.508Z,970.78
2019-01-14T03:07:37.687Z,970.82
2019-01-14T03:08:37.867Z,970.84
2019-01-14T03:09:38.045Z,970.77
2019-01-14T03:10:38.226Z,970.88
2019-01-14T03:11:38.430Z,970.92
2019-01-14T03:12:38.610Z,970.96
2019-01-14T03:13:38.795Z,971.01
2019-01-14T03:14:38.972Z,971.02
2019-01-14T03:15:39.153Z,971.05
2019-01-14T03:16:39.336Z,971.09
2019-01-14T03:17:39.516Z,971.16
2019-01-14T03:18:39.698Z,971.15
2019-01-14T03:19:39.879Z,971.19
2019-01-14T03:20:40.062Z,971.20
2019-01-14T03:21:40.236Z,971.13
2019-01-14T03:22:40.421Z,971.20
2019-01-14T03:23:40.600Z,971.21
2019-01-14T03:24:40.779Z,971.18
2019-01-14T03:25:40.969Z,971.22
2019-01-14T03:26:41.141Z,971.21
2019-01-14T03:27:41.329Z,971.31
2019-01-14T03:28:41.506Z,971.31
2019-01-14T03:29:41.689Z,971.28
2019-01-14T03:30:41.870Z,971.25
2019-01-14T03:31:42.059Z,971.35
2019-01-14T03:32:42.236Z,971.31
2019-01-14T03:33:42.414Z,971.34
2019-01-14T03:34:42.594Z,971.27
2019-01-14T03:35:42.781Z,971.31
2019-01-14T03:36:42.963Z,971.32
2019-01-14T03:37:43.146Z,971.32
2019-01-14T03:38:43.319Z,971.39
2019-01-14T03:39:43.504Z,971.40
2019-01-14T03:40:43.680Z,971.42
2019-01-14T03:41:43.857Z,971.47
2019-01-14T03:42:44.042Z,971.47
2019-01-14T03:43:44.221Z,971.49
2019-01-14T03:44:44.409Z,971.52
2019-01-14T03:45:44.585Z,971.50
2019-01-14T03:46:44.764Z,971.56
2019-01-14T03:47:44.939Z,971.57
2019-01-14T03:48:45.142Z,971.65
2019-01-14T03:49:45.319Z,971.62
2019-01-14T03:50:45.497Z,971.64
2019-01-14T03:51:45.680Z,971.68
2019-01-14T03:52:45.863Z,971.70
2019-01-14T03:53:46.043Z,971.66
2019-01-14T03:54:46.220Z,971.71
2019-01-14T03:55:46.402Z,971.77
2019-01-14T03:56:46.585Z,971.81
2019-01-14T03:57:46.765Z,971.82
2019-01-14T03:58:46.956Z,971.89
2019-01-14T03:59:47.134Z,971.85
2019-01-14T04:00:47.312Z,971.89
2019-01-14T04:01:47.487Z,971.87
2019-01-14T04:02:47.667Z,971.89
2019-01-14T04:03:47.886Z,971.95
2019-01-14T04:04:48.063Z,971.93
2019-01-14T04:05:48.245Z,971.93
2019-01-14T04:06:48.442Z,971.99
2019-01-14T04:07:48.610Z,972.03
2019-01-14T04:08:48.807Z,972.09
2019-01-14T04:09:48.968Z,972.10
2019-01-14T04:10:49.146Z,972.04
2019-01-14T04:11:49.332Z,972.11
2019-01-14T04:12:49.514Z,972.11
2019-01-14T04:13:49.713Z,972.09
2019-01-14T04:14:49.877Z,972.13
2019-01-14T04:15:50.050Z,972.16
2019-01-14T04:16:50.236Z,972.18
2019-01-14T04:17:50.417Z,972.22
2019-01-14T04:18:50.601Z,972.23
2019-01-14T04:19:50.779Z,972.20
2019-01-14T04:20:50.964Z,972.25
2019-01-14T04:21:51.148Z,972.30
2019-01-14T04:22:51.334Z,972.34
2019-01-14T04:23:51.522Z,972.37
2019-01-14T04:24:51.690Z,972.32
2019-01-14T04:25:51.877Z,972.35
2019-01-14T04:26:52.058Z,972.33
2019-01-14T04:27:52.249Z,972.41
2019-01-14T04:28:52.424Z,972.36
2019-01-14T04:29:52.608Z,972.45
2019-01-14T04:30:52.789Z,972.45
2019-01-14T04:31:52.970Z,972.47
2019-01-14T04:32:53.148Z,972.49
2019-01-14T04:33:53.334Z,972.48
2019-01-14T04:34:53.510Z,972.51
2019-01-14T04:35:53.694Z,972.54
2019-01-14T04:36:53.860Z,972.53
2019-01-14T04:37:54.052Z,972.54
2019-01-14T04:38:54.241Z,972.52
2019-01-14T04:39:54.420Z,972.54
2019-01-14T04:40:54.603Z,972.58
2019-01-14T04:41:54.785Z,972.52
2019-01-14T04:42:54.964Z,972.54
2019-01-14T04:43:55.147Z,972.60
2019-01-14T04:44:55.327Z,972.61
2019-01-14T04:45:55.509Z,972.59
2019-01-14T04:46:55.751Z,972.60
2019-01-14T04:47:55.890Z,972.65
2019-01-14T04:48:56.073Z,972.63
2019-01-14T04:49:56.251Z,972.69
2019-01-14T04:50:56.443Z,972.62
2019-01-14T04:51:56.620Z,972.65
2019-01-14T04:52:56.808Z,972.58
2019-01-14T04:53:56.977Z,972.66
2019-01-14T04:54:57.156Z,972.65
2019-01-14T04:55:57.342Z,972.68
2019-01-14T04:56:57.535Z,972.63
2019-01-14T04:57:57.710Z,972.73
2019-01-14T04:58:57.895Z,972.66
2019-01-14T04:59:58.068Z,972.65
2019-01-14T05:00:58.252Z,972.59
2019-01-14T05:01:58.431Z,972.63
2019-01-14T05:02:58.608Z,972.60
2019-01-14T05:03:58.781Z,972.64
2019-01-14T05:04:58.966Z,972.63
2019-01-14T05:05:59.149Z,972.59
2019-01-14T05:06:59.336Z,972.64
2019-01-14T05:07:59.518Z,972.62
2019-01-14T05:08:59.695Z,972.67
2019-01-14T05:09:59.879Z,972.66
2019-01-14T05:11:00.056Z,972.65
2019-01-14T05:12:00.247Z,972.70
2019-01-14T05:13:00.427Z,972.64
2019-01-14T05:14:00.616Z,972.64
2019-01-14T05:15:00.839Z,972.64
2019-01-14T05:16:00.986Z,972.59
2019-01-14T05:17:01.153Z,972.67
2019-01-14T05:18:01.330Z,972.65
2019-01-14T05:19:01.510Z,972.64
2019-01-14T05:20:01.692Z,972.65
2019-01-14T05:21:01.871Z,972.65
2019-01-14T05:22:02.059Z,972.71
2019-01-14T05:23:02.240Z,972.70
2019-01-14T05:24:02.417Z,972.73
2019-01-14T05:25:02.600Z,972.74
2019-01-14T05:26:02.791Z,972.74
2019-01-14T05:27:03.033Z,972.71
2019-01-14T05:28:03.139Z,972.69
2019-01-14T05:29:03.326Z,972.69
2019-01-14T05:30:03.519Z,972.73
2019-01-14T05:31:03.699Z,972.72
2019-01-14T05:32:03.880Z,972.74
2019-01-14T05:33:04.064Z,972.81
2019-01-14T05:34:04.354Z,972.83
2019-01-14T05:35:04.453Z,972.89
2019-01-14T05:36:04.635Z,972.95
2019-01-14T05:37:04.822Z,972.99
2019-01-14T05:38:05.003Z,973.05
2019-01-14T05:39:05.187Z,973.03
2019-01-14T05:40:05.363Z,973.10
2019-01-14T05:41:05.544Z,973.14
2019-01-14T05:42:05.727Z,973.23
2019-01-14T05:43:05.920Z,973.28
2019-01-14T05:44:06.099Z,973.28
2019-01-14T05:45:06.286Z,973.33
2019-01-14T05:46:06.470Z,973.35
2019-01-14T05:47:06.659Z,973.34
2019-01-14T05:48:06.853Z,973.30
2019-01-14T05:49:07.032Z,973.28
2019-01-14T05:50:07.205Z,973.39
2019-01-14T05:51:07.387Z,973.45
2019-01-14T05:52:07.573Z,973.51
2019-01-14T05:53:07.749Z,973.54
2019-01-14T05:54:07.929Z,973.56
2019-01-14T05:55:08.115Z,973.55
2019-01-14T05:56:08.308Z,973.58
2019-01-14T05:57:08.478Z,973.58
2019-01-14T05:58:08.662Z,973.59
2019-01-14T05:59:08.844Z,973.58
2019-01-14T06:00:09.027Z,973.57
2019-01-14T06:01:09.202Z,973.56
2019-01-14T06:02:09.384Z,973.60
2019-01-14T06:03:09.563Z,973.59
2019-01-14T06:04:09.934Z,973.61
2019-01-14T06:05:09.877Z,973.59
2019-01-14T06:06:10.054Z,973.62
2019-01-14T06:07:10.233Z,973.70
2019-01-14T06:08:10.414Z,973.68
2019-01-14T06:09:10.598Z,973.73
2019-01-14T06:10:10.776Z,973.74
2019-01-14T06:11:10.961Z,973.74
2019-01-14T06:12:11.137Z,973.74
2019-01-14T06:13:11.323Z,973.76
2019-01-14T06:14:11.511Z,973.79
2019-01-14T06:15:11.690Z,973.82
2019-01-14T06:16:11.868Z,973.83
2019-01-14T06:17:12.043Z,973.87
2019-01-14T06:18:12.220Z,973.83
2019-01-14T06:19:12.406Z,973.82
2019-01-14T06:20:12.579Z,973.80
2019-01-14T06:21:12.766Z,973.80
2019-01-14T06:22:12.944Z,973.81
2019-01-14T06:23:13.131Z,973.78
2019-01-14T06:24:13.316Z,973.80
2019-01-14T06:25:13.508Z,973.84
2019-01-14T06:26:13.684Z,973.77
2019-01-14T06:27:13.868Z,973.81
2019-01-14T06:28:14.046Z,973.84
2019-01-14T06:29:14.229Z,973.82
2019-01-14T06:30:14.421Z,973.82
2019-01-14T06:31:14.596Z,973.78
2019-01-14T06:32:14.779Z,973.76
2019-01-14T06:33:14.959Z,973.78
2019-01-14T06:34:15.141Z,973.79
2019-01-14T06:35:15.320Z,973.80
2019-01-14T06:36:15.501Z,973.79
2019-01-14T06:37:15.681Z,973.83
2019-01-14T06:38:15.860Z,973.89
2019-01-14T06:39:16.039Z,973.92
2019-01-14T06:40:16.228Z,973.93
2019-01-14T06:41:16.410Z,973.96
2019-01-14T06:42:16.596Z,973.96
2019-01-14T06:43:16.778Z,973.95
2019-01-14T06:44:16.956Z,973.94
2019-01-14T06:45:17.136Z,973.98
2019-01-14T06:46:17.308Z,974.00
2019-01-14T06:47:17.506Z,974.03
2019-01-14T06:48:17.722Z,974.03
2019-01-14T06:49:17.872Z,974.05
2019-01-14T06:50:18.053Z,974.08
2019-01-14T06:51:18.229Z,974.12
2019-01-14T06:52:18.440Z,974.14
2019-01-14T06:53:18.602Z,974.12
2019-01-14T06:54:18.782Z,974.21
2019-01-14T06:55:18.966Z,974.25
2019-01-14T06:56:19.146Z,974.28
2019-01-14T06:57:19.331Z,974.25
2019-01-14T06:58:19.513Z,974.30
2019-01-14T06:59:19.698Z,974.33
2019-01-14T07:00:19.882Z,974.40
2019-01-14T07:01:20.069Z,974.40
2019-01-14T07:02:20.243Z,974.41
2019-01-14T07:03:20.439Z,974.44
2019-01-14T07:04:20.614Z,974.48
2019-01-14T07:05:20.808Z,974.48
2019-01-14T07:06:22.405Z,974.42
2019-01-14T07:07:21.164Z,974.38
2019-01-14T07:08:21.348Z,974.39
2019-01-14T07:09:21.552Z,974.44
2019-01-14T07:10:21.745Z,974.51
2019-01-14T07:11:21.920Z,974.55
2019-01-14T07:12:22.107Z,974.52
2019-01-14T07:13:22.286Z,974.56
2019-01-14T07:14:22.459Z,974.56
2019-01-14T07:15:22.642Z,974.57
2019-01-14T07:16:22.825Z,974.55
2019-01-14T07:17:23.003Z,974.65
2019-01-14T07:18:23.186Z,974.60
2019-01-14T07:19:23.361Z,974.71
2019-01-14T07:20:23.539Z,974.69
2019-01-14T07:21:23.720Z,974.67
2019-01-14T07:22:23.904Z,974.66
2019-01-14T07:23:24.082Z,974.66
2019-01-14T07:24:24.260Z,974.68
2019-01-14T07:25:24.436Z,974.69
2019-01-14T07:26:25.106Z,974.67
2019-01-14T07:27:24.801Z,974.74
2019-01-14T07:28:24.973Z,974.72
2019-01-14T07:29:25.169Z,974.71
2019-01-14T07:30:25.344Z,974.71
2019-01-14T07:31:25.518Z,974.72
2019-01-14T07:32:25.705Z,974.75
2019-01-14T07:33:25.889Z,974.78
2019-01-14T07:34:26.062Z,974.77
2019-01-14T07:35:26.239Z,974.86
2019-01-14T07:36:26.429Z,974.87
2019-01-14T07:37:26.604Z,974.82
2019-01-14T07:38:26.800Z,974.84
2019-01-14T07:39:26.978Z,974.88
2019-01-14T07:40:27.164Z,974.87
2019-01-14T07:41:27.343Z,974.87
2019-01-14T07:42:27.524Z,974.87
2019-01-14T07:43:27.715Z,974.84
2019-01-14T07:44:27.922Z,974.91
2019-01-14T07:45:28.101Z,974.91
2019-01-14T07:46:28.286Z,974.90
2019-01-14T07:47:28.465Z,974.87
2019-01-14T07:48:28.650Z,974.83
2019-01-14T07:49:28.827Z,974.86
2019-01-14T07:50:29.008Z,974.93
2019-01-14T07:51:29.187Z,974.93
2019-01-14T07:52:29.367Z,974.93
2019-01-14T07:53:29.551Z,974.93
2019-01-14T07:54:29.732Z,974.90
2019-01-14T07:55:29.910Z,974.96
2019-01-14T07:56:30.091Z,974.96
2019-01-14T07:57:30.272Z,975.03
2019-01-14T07:58:30.455Z,975.02
2019-01-14T07:59:30.639Z,975.08
2019-01-14T08:00:30.816Z,975.11
2019-01-14T08:01:30.994Z,975.13
2019-01-14T08:02:31.179Z,975.12
2019-01-14T08:03:31.363Z,975.15
2019-01-14T08:04:31.536Z,975.16
2019-01-14T08:05:31.714Z,975.20
2019-01-14T08:06:31.893Z,975.22
2019-01-14T08:07:32.069Z,975.31
2019-01-14T08:08:32.252Z,975.38
2019-01-14T08:09:32.424Z,975.38
2019-01-14T08:10:32.655Z,975.35
2019-01-14T08:11:32.785Z,975.30
2019-01-14T08:12:32.972Z,975.25
2019-01-14T08:13:33.155Z,975.26
2019-01-14T08:14:33.350Z,975.38
2019-01-14T08:15:33.528Z,975.47
2019-01-14T08:16:33.714Z,975.53
2019-01-14T08:17:33.906Z,975.49
2019-01-14T08:18:34.089Z,975.43
2019-01-14T08:19:34.278Z,975.37
2019-01-14T08:20:34.466Z,975.44
2019-01-14T08:21:34.644Z,975.48
2019-01-14T08:22:34.837Z,975.49
2019-01-14T08:23:35.017Z,975.54
2019-01-14T08:24:35.201Z,975.57
2019-01-14T08:25:35.383Z,975.53
2019-01-14T08:26:35.569Z,975.55
2019-01-14T08:27:35.747Z,975.54
2019-01-14T08:28:35.939Z,975.59
2019-01-14T08:29:36.124Z,975.56
2019-01-14T08:30:36.301Z,975.59
2019-01-14T08:31:36.487Z,975.60
2019-01-14T08:32:36.669Z,975.67
2019-01-14T08:33:36.847Z,975.65
2019-01-14T08:34:37.042Z,975.76
2019-01-14T08:35:37.224Z,975.79
2019-01-14T08:36:37.405Z,975.87
2019-01-14T08:37:37.599Z,975.77
2019-01-14T08:38:37.787Z,975.80
2019-01-14T08:39:37.976Z,975.98
2019-01-14T08:40:38.160Z,976.12
2019-01-14T08:41:38.342Z,976.15
2019-01-14T08:42:38.534Z,976.16
2019-01-14T08:43:38.732Z,976.13
2019-01-14T08:44:38.910Z,975.99
2019-01-14T08:45:39.093Z,976.14
2019-01-14T08:46:39.279Z,975.98
2019-01-14T08:47:39.467Z,975.91
2019-01-14T08:48:39.651Z,976.03
2019-01-14T08:49:39.833Z,976.26
2019-01-14T08:50:40.028Z,976.10
2019-01-14T08:51:40.224Z,976.09
2019-01-14T08:52:40.401Z,976.00
2019-01-14T08:53:40.614Z,975.98
2019-01-14T08:54:40.799Z,975.99
2019-01-14T08:55:41.005Z,975.97
2019-01-14T08:56:41.201Z,975.93
2019-01-14T08:57:41.394Z,975.80
2019-01-14T08:58:41.584Z,975.84
2019-01-14T08:59:41.773Z,975.86
2019-01-14T09:00:41.957Z,975.96
2019-01-14T09:01:42.145Z,976.04
2019-01-14T09:02:42.331Z,976.04
2019-01-14T09:03:42.515Z,976.07
2019-01-14T09:04:42.702Z,976.11
2019-01-14T09:05:42.892Z,976.13
2019-01-14T09:06:43.082Z,976.13
2019-01-14T09:07:43.273Z,976.08
2019-01-14T09:08:43.469Z,976.16
2019-01-14T09:09:43.662Z,976.09
2019-01-14T09:10:43.868Z,976.24
2019-01-14T09:11:44.039Z,976.33
2019-01-14T09:12:44.228Z,976.24
2019-01-14T09:13:44.415Z,976.02
2019-01-14T09:14:44.603Z,976.10
2019-01-14T09:15:44.792Z,976.40
2019-01-14T09:16:44.985Z,976.42
2019-01-14T09:17:45.180Z,976.26
2019-01-14T09:18:45.379Z,976.24
2019-01-14T09:19:45.571Z,976.16
2019-01-14T09:20:45.770Z,976.26
2019-01-14T09:21:45.964Z,976.16
2019-01-14T09:22:46.156Z,976.30
2019-01-14T09:23:46.403Z,976.20
2019-01-14T09:24:46.586Z,976.17
2019-01-14T09:25:53.626Z,976.15
2019-01-14T09:26:46.990Z,976.03
2019-01-14T09:27:47.175Z,976.01
2019-01-14T09:28:47.364Z,976.05
2019-01-14T09:29:47.563Z,975.94
2019-01-14T09:30:47.754Z,975.92
2019-01-14T09:31:47.945Z,975.92
2019-01-14T09:32:48.136Z,975.92
2019-01-14T09:33:48.319Z,975.85
2019-01-14T09:34:48.513Z,975.84
2019-01-14T09:35:48.707Z,975.93
2019-01-14T09:36:48.902Z,975.92
2019-01-14T09:37:49.097Z,975.92
2019-01-14T09:38:49.285Z,975.95
2019-01-14T09:39:49.468Z,976.04
2019-01-14T09:40:49.653Z,975.89
2019-01-14T09:41:49.843Z,975.88
2019-01-14T09:42:50.049Z,975.89
2019-01-14T09:43:50.229Z,975.91
2019-01-14T09:44:50.419Z,975.83
2019-01-14T09:45:50.607Z,975.86
2019-01-14T09:46:50.789Z,975.86
2019-01-14T09:47:50.964Z,975.85
2019-01-14T09:48:51.157Z,975.86
2019-01-14T09:49:51.343Z,975.89
2019-01-14T09:50:51.529Z,975.80
2019-01-14T09:51:51.709Z,975.84
2019-01-14T09:52:51.904Z,975.89
2019-01-14T09:53:52.081Z,975.88
2019-01-14T09:54:52.432Z,975.83
2019-01-14T09:55:52.489Z,975.80
2019-01-14T09:56:52.674Z,975.85
2019-01-14T09:57:52.869Z,975.90
2019-01-14T09:58:53.053Z,975.95
2019-01-14T09:59:53.234Z,975.93
2019-01-14T10:00:53.420Z,975.97
2019-01-14T10:01:53.617Z,975.97
2019-01-14T10:02:55.520Z,976.00
2019-01-14T10:03:53.977Z,976.14
2019-01-14T10:04:54.165Z,976.07
2019-01-14T10:05:54.351Z,976.15
2019-01-14T10:06:54.607Z,976.23
2019-01-14T10:07:54.660Z,976.12
2019-01-14T10:08:54.848Z,976.16
2019-01-14T10:09:55.028Z,976.15
2019-01-14T10:10:55.211Z,976.08
2019-01-14T10:11:55.393Z,976.21
2019-01-14T10:12:55.582Z,976.21
2019-01-14T10:13:55.777Z,976.23
2019-01-14T10:14:55.961Z,976.27
2019-01-14T10:15:56.142Z,976.28
2019-01-14T10:16:56.337Z,976.28
2019-01-14T10:17:56.514Z,976.31
2019-01-14T10:18:56.699Z,976.30
2019-01-14T10:19:56.882Z,976.36
2019-01-14T10:20:57.070Z,976.35
2019-01-14T10:21:57.250Z,976.38
2019-01-14T10:22:57.429Z,976.41
2019-01-14T10:23:57.611Z,976.39
2019-01-14T10:24:57.793Z,976.44
2019-01-14T10:25:57.977Z,976.42
2019-01-14T10:26:58.163Z,976.44
2019-01-14T10:27:58.355Z,976.25
2019-01-14T10:28:58.535Z,976.38
2019-01-14T10:29:58.713Z,976.34
2019-01-14T10:30:58.897Z,976.36
2019-01-14T10:31:59.076Z,976.32
2019-01-14T10:32:59.261Z,976.38
2019-01-14T10:33:59.450Z,976.34
2019-01-14T10:34:59.633Z,976.35
2019-01-14T10:35:59.839Z,976.41
2019-01-14T10:37:00.019Z,976.44
2019-01-14T10:38:00.197Z,976.39
2019-01-14T10:39:00.390Z,976.43
2019-01-14T10:40:00.567Z,976.40
2019-01-14T10:41:00.761Z,976.46
2019-01-14T10:42:04.902Z,976.44
2019-01-14T10:43:01.123Z,976.35
2019-01-14T10:44:01.312Z,976.44
2019-01-14T10:45:01.491Z,976.37
2019-01-14T10:46:01.677Z,976.47
2019-01-14T10:47:01.871Z,976.45
2019-01-14T10:48:02.040Z,976.45
2019-01-14T10:49:06.655Z,976.37
2019-01-14T10:50:02.420Z,976.39
2019-01-14T10:51:02.602Z,976.34
2019-01-14T10:52:02.798Z,976.49
2019-01-14T10:53:02.980Z,976.47
2019-01-14T10:54:03.178Z,976.49
2019-01-14T10:55:03.355Z,976.44
2019-01-14T10:56:03.532Z,976.44
2019-01-14T10:57:03.731Z,976.44
2019-01-14T10:58:03.905Z,976.31
2019-01-14T10:59:04.089Z,976.46
2019-01-14T11:00:04.273Z,976.56
2019-01-14T11:01:04.453Z,976.53
2019-01-14T11:02:04.643Z,976.48
2019-01-14T11:03:04.823Z,976.45
2019-01-14T11:04:05.004Z,976.54
2019-01-14T11:05:05.193Z,976.41
2019-01-14T11:06:05.368Z,976.53
2019-01-14T11:07:05.556Z,976.53
2019-01-14T11:08:05.739Z,976.53
2019-01-14T11:09:06.218Z,976.53
2019-01-14T11:10:06.108Z,976.51
2019-01-14T11:11:06.285Z,976.61
2019-01-14T11:12:06.469Z,976.63
2019-01-14T11:13:06.653Z,976.69
2019-01-14T11:14:06.833Z,976.63
2019-01-14T11:15:07.019Z,976.64
2019-01-14T11:16:07.207Z,976.72
2019-01-14T11:17:07.390Z,976.64
2019-01-14T11:18:07.574Z,976.62
2019-01-14T11:19:07.763Z,976.64
2019-01-14T11:20:07.946Z,976.65
2019-01-14T11:21:08.127Z,976.83
2019-01-14T11:22:08.310Z,976.83
2019-01-14T11:23:08.497Z,976.77
2019-01-14T11:24:08.683Z,976.78
2019-01-14T11:25:08.870Z,976.71
2019-01-14T11:26:09.054Z,976.70
2019-01-14T11:27:09.238Z,976.78
2019-01-14T11:28:09.425Z,976.74
2019-01-14T11:29:09.612Z,976.85
2019-01-14T11:30:09.792Z,976.91
2019-01-14T11:31:09.977Z,976.85
2019-01-14T11:32:10.169Z,977.05
2019-01-14T11:33:10.353Z,976.97
2019-01-14T11:34:10.549Z,976.79
2019-01-14T11:35:10.733Z,976.52
2019-01-14T11:36:10.933Z,976.65
2019-01-14T11:37:11.116Z,976.81
2019-01-14T11:38:11.299Z,976.69
2019-01-14T11:39:11.490Z,976.90
2019-01-14T11:40:11.689Z,976.91
2019-01-14T11:41:11.898Z,976.78
2019-01-14T11:42:12.085Z,976.86
2019-01-14T11:43:12.275Z,976.96
2019-01-14T11:44:12.466Z,976.79
2019-01-14T11:45:12.658Z,976.75
2019-01-14T11:46:12.845Z,976.55
2019-01-14T11:47:13.033Z,976.85
2019-01-14T11:48:13.219Z,976.94
2019-01-14T11:49:13.402Z,976.90
2019-01-14T11:50:13.602Z,976.93
2019-01-14T11:51:13.790Z,976.72
2019-01-14T11:52:13.976Z,976.89
2019-01-14T11:53:14.166Z,977.01
2019-01-14T11:54:14.351Z,977.02
2019-01-14T11:55:14.541Z,977.09
2019-01-14T11:56:14.731Z,977.00
2019-01-14T11:57:14.921Z,977.03
2019-01-14T11:58:15.101Z,977.07
2019-01-14T11:59:15.293Z,976.96
2019-01-14T12:00:15.484Z,976.95
2019-01-14T12:01:15.671Z,977.15
2019-01-14T12:02:15.867Z,976.95
2019-01-14T12:03:16.055Z,977.07
2019-01-14T12:04:16.242Z,977.17
2019-01-14T12:05:16.429Z,977.07
2019-01-14T12:06:16.616Z,977.12
2019-01-14T12:07:16.806Z,977.11
2019-01-14T12:08:17.010Z,977.14
2019-01-14T12:09:17.199Z,977.16
2019-01-14T12:10:17.392Z,977.18
2019-01-14T12:11:17.584Z,977.32
2019-01-14T12:12:17.781Z,977.32
2019-01-14T12:13:17.977Z,977.41
2019-01-14T12:14:18.170Z,977.36
2019-01-14T12:15:18.365Z,977.41
2019-01-14T12:16:18.551Z,977.26
2019-01-14T12:17:18.745Z,977.26
2019-01-14T12:18:18.939Z,977.26
2019-01-14T12:19:19.130Z,977.21
2019-01-14T12:20:19.326Z,977.21
2019-01-14T12:21:19.516Z,977.22
2019-01-14T12:22:19.714Z,977.14
2019-01-14T12:23:19.905Z,977.10
2019-01-14T12:24:20.096Z,977.13
2019-01-14T12:25:20.289Z,977.22
2019-01-14T12:26:20.483Z,977.26
2019-01-14T12:27:20.670Z,977.37
2019-01-14T12:28:20.887Z,977.39
2019-01-14T12:29:21.059Z,977.40
2019-01-14T12:30:21.246Z,977.42